Time;durP1;ratioP1;P1;durP2;ratioP2;P2;SDS_P1;SDS_P2;PMS_P1;PMS_P2;Temp;Humidity;BMP_temperature;BMP_pressure;BME280_temperature;BME280_humidity;BME280_pressure;Samples;Min_cycle;Max_cycle;Signal;HPM_P1;HPM_P2
2022/04/28 00:02:12;;;;;;;12.40;7.53;;;;;;;;;;5068978;28;20349;-74
2022/04/28 00:04:39;;;;;;;11.20;7.25;;;;;;;;;;5036177;28;20038;-74
2022/04/28 00:07:05;;;;;;;12.48;7.97;;;;;;;;;;5068611;28;20040;-74
2022/04/28 00:09:30;;;;;;;9.05;6.60;;;;;;;;;;5035372;28;20458;-74
2022/04/28 00:11:56;;;;;;;8.65;6.97;;;;;;;;;;5051791;28;20055;-74
2022/04/28 00:14:21;;;;;;;11.80;8.05;;;;;;;;;;5055822;28;20078;-74
2022/04/28 00:16:47;;;;;;;12.95;9.38;;;;;;;;;;5056537;28;20037;-74
2022/04/28 00:19:12;;;;;;;12.73;8.80;;;;;;;;;;5071481;28;20053;-74
2022/04/28 00:21:38;;;;;;;13.77;9.52;;;;;;;;;;5038330;28;20024;-74
2022/04/28 00:24:03;;;;;;;17.67;12.23;;;;;;;;;;5056381;28;20033;-74
2022/04/28 00:26:29;;;;;;;15.38;11.20;;;;;;;;;;5056000;28;20068;-74
2022/04/28 00:28:54;;;;;;;15.13;10.18;;;;;;;;;;5038143;28;20120;-74
2022/04/28 00:31:19;;;;;;;15.25;10.75;;;;;;;;;;5071303;28;20055;-74
2022/04/28 00:33:48;;;;;;;14.75;10.48;;;;;;;;;;5055675;28;20040;-75
2022/04/28 00:36:13;;;;;;;14.45;9.93;;;;;;;;;;5055934;28;20396;-75
2022/04/28 00:38:38;;;;;;;14.30;9.88;;;;;;;;;;5056008;28;20032;-76
2022/04/28 00:41:05;;;;;;;12.15;9.55;;;;;;;;;;5054925;28;20021;-74
2022/04/28 00:43:31;;;;;;;11.52;8.18;;;;;;;;;;5038070;28;20037;-74
2022/04/28 00:45:56;;;;;;;10.50;7.60;;;;;;;;;;5055704;28;20021;-74
2022/04/28 00:51:07;;;;;;;6.50;5.57;;;;;;;;;;5037984;28;20044;-74
2022/04/28 00:53:34;;;;;;;7.65;5.60;;;;;;;;;;5070876;28;20025;-74
2022/04/28 00:56:00;;;;;;;6.00;5.20;;;;;;;;;;5054483;28;20036;-74
2022/04/28 00:58:27;;;;;;;6.30;5.50;;;;;;;;;;5037809;28;20017;-74
2022/04/28 01:00:53;;;;;;;7.45;5.82;;;;;;;;;;5054469;28;20036;-74
2022/04/28 01:03:20;;;;;;;6.60;5.70;;;;;;;;;;5055544;28;20029;-73
2022/04/28 01:05:46;;;;;;;6.43;5.78;;;;;;;;;;5070527;28;20366;-73
2022/04/28 01:08:11;;;;;;;8.18;5.68;;;;;;;;;;5055440;28;20016;-74
2022/04/28 01:10:37;;;;;;;7.43;5.45;;;;;;;;;;5036727;28;20041;-73
2022/04/28 01:13:03;;;;;;;7.20;5.60;;;;;;;;;;5037040;28;20078;-74
2022/04/28 01:15:29;;;;;;;8.15;6.43;;;;;;;;;;5070425;28;20029;-74
2022/04/28 01:17:55;;;;;;;7.22;6.43;;;;;;;;;;5037172;28;20437;-73
2022/04/28 01:20:21;;;;;;;8.55;7.28;;;;;;;;;;5037016;28;20029;-74
2022/04/28 01:22:46;;;;;;;7.40;6.50;;;;;;;;;;5055223;28;20378;-74
2022/04/28 01:25:13;;;;;;;11.88;8.65;;;;;;;;;;5036967;28;20039;-74
2022/04/28 01:27:39;;;;;;;13.38;8.75;;;;;;;;;;5036975;28;20099;-75
2022/04/28 01:30:14;;;;;;;11.90;8.88;;;;;;;;;;5037506;28;20416;-75
2022/04/28 01:32:45;;;;;;;11.65;9.55;;;;;;;;;;5054646;28;20031;-75
2022/04/28 01:35:11;;;;;;;14.93;9.07;;;;;;;;;;5036954;28;20111;-74
2022/04/28 01:37:36;;;;;;;10.60;8.52;;;;;;;;;;5036464;28;20064;-73
2022/04/28 01:40:08;;;;;;;12.82;8.95;;;;;;;;;;5036518;28;20107;-74
2022/04/28 01:42:34;;;;;;;11.43;8.60;;;;;;;;;;5070390;28;20083;-74
2022/04/28 01:44:59;;;;;;;12.85;8.75;;;;;;;;;;5037279;28;20017;-75
2022/04/28 01:47:24;;;;;;;9.85;8.30;;;;;;;;;;5070118;28;20029;-75
2022/04/28 01:50:11;;;;;;;10.68;8.07;;;;;;;;;;5053709;28;20115;-75
2022/04/28 01:56:15;;;;;;;10.40;8.40;;;;;;;;;;5055042;28;20079;-74
2022/04/28 01:58:58;;;;;;;10.73;8.15;;;;;;;;;;5055659;28;20052;-74
2022/04/28 02:01:56;;;;;;;10.77;8.55;;;;;;;;;;5020630;28;20029;-74
2022/04/28 02:04:22;;;;;;;12.68;8.35;;;;;;;;;;5054419;28;20029;-74
2022/04/28 02:06:49;;;;;;;12.88;8.68;;;;;;;;;;5070023;28;20023;-74
2022/04/28 02:09:15;;;;;;;11.75;9.00;;;;;;;;;;5036677;28;20021;-74
2022/04/28 02:11:41;;;;;;;9.90;8.18;;;;;;;;;;5036088;28;20123;-74
2022/04/28 02:14:25;;;;;;;9.75;8.60;;;;;;;;;;5054221;28;20052;-74
2022/04/28 02:17:06;;;;;;;10.38;8.25;;;;;;;;;;5039018;28;20035;-74
2022/04/28 02:19:37;;;;;;;10.00;8.20;;;;;;;;;;5036193;28;20029;-74
2022/04/28 02:22:03;;;;;;;8.70;7.80;;;;;;;;;;5036019;28;20080;-75
2022/04/28 02:24:31;;;;;;;10.85;8.30;;;;;;;;;;5068896;28;20021;-75
2022/04/28 02:26:57;;;;;;;11.35;9.00;;;;;;;;;;5069116;28;20036;-75
2022/04/28 02:29:23;;;;;;;8.77;7.78;;;;;;;;;;5035735;28;20420;-75
2022/04/28 02:31:48;;;;;;;11.38;8.63;;;;;;;;;;5053827;28;20025;-75
2022/04/28 02:34:13;;;;;;;9.73;8.35;;;;;;;;;;5035864;28;20021;-75
2022/04/28 02:36:43;;;;;;;9.65;7.70;;;;;;;;;;5053542;28;20484;-75
2022/04/28 02:39:10;;;;;;;9.35;7.65;;;;;;;;;;5035991;28;20061;-75
2022/04/28 02:41:36;;;;;;;9.23;7.50;;;;;;;;;;5069146;28;20435;-75
2022/04/28 02:44:03;;;;;;;7.68;6.75;;;;;;;;;;5035974;28;20112;-75
2022/04/28 02:46:29;;;;;;;10.68;7.90;;;;;;;;;;5035898;28;20067;-75
2022/04/28 02:48:58;;;;;;;9.50;7.80;;;;;;;;;;5051890;28;20017;-75
2022/04/28 02:51:24;;;;;;;24.02;8.77;;;;;;;;;;5035811;28;20047;-75
2022/04/28 02:53:49;;;;;;;10.32;7.20;;;;;;;;;;5053511;28;20013;-74
2022/04/28 02:56:15;;;;;;;9.93;7.38;;;;;;;;;;5036163;28;20115;-74
2022/04/28 02:58:40;;;;;;;10.15;7.32;;;;;;;;;;5053678;28;20021;-74
2022/04/28 03:01:07;;;;;;;11.45;7.93;;;;;;;;;;5035686;28;20036;-73
2022/04/28 03:03:33;;;;;;;13.40;8.05;;;;;;;;;;5036217;28;20468;-73
2022/04/28 03:11:27;;;;;;;10.63;7.40;;;;;;;;;;5039188;28;20048;-74
2022/04/28 03:13:53;;;;;;;8.70;7.75;;;;;;;;;;5057248;28;20033;-74
2022/04/28 03:16:19;;;;;;;8.32;7.35;;;;;;;;;;5072660;28;20025;-74
2022/04/28 03:18:55;;;;;;;9.73;7.68;;;;;;;;;;5072897;28;20013;-74
2022/04/28 03:21:21;;;;;;;8.65;7.38;;;;;;;;;;5072949;28;20032;-73
2022/04/28 03:23:46;;;;;;;9.95;7.63;;;;;;;;;;5072568;28;20024;-74
2022/04/28 03:26:12;;;;;;;11.02;7.75;;;;;;;;;;5038959;28;20056;-75
2022/04/28 03:28:38;;;;;;;11.05;8.05;;;;;;;;;;5039242;28;20024;-75
2022/04/28 03:31:05;;;;;;;9.77;7.40;;;;;;;;;;5038845;28;20481;-74
2022/04/28 03:33:41;;;;;;;9.43;7.57;;;;;;;;;;5039308;28;20458;-75
2022/04/28 03:36:50;;;;;;;13.13;7.90;;;;;;;;;;5039328;28;20036;-75
2022/04/28 03:38:54;;;;;;;9.30;7.97;;;;;;;;;;5056531;28;20028;-75
2022/04/28 03:41:19;;;;;;;10.20;7.63;;;;;;;;;;5038669;28;20028;-75
2022/04/28 03:43:45;;;;;;;9.20;8.10;;;;;;;;;;5055681;28;20029;-75
2022/04/28 03:46:11;;;;;;;8.75;7.82;;;;;;;;;;5039288;28;20461;-75
2022/04/28 03:48:37;;;;;;;10.57;8.50;;;;;;;;;;5039223;28;20111;-74
2022/04/28 03:51:03;;;;;;;11.55;8.23;;;;;;;;;;5071827;28;20122;-74
2022/04/28 03:53:29;;;;;;;9.70;7.90;;;;;;;;;;5056668;28;20137;-74
2022/04/28 03:55:54;;;;;;;10.55;8.15;;;;;;;;;;5072371;28;20031;-75
2022/04/28 03:58:21;;;;;;;11.05;8.25;;;;;;;;;;5072264;28;20063;-75
2022/04/28 04:00:49;;;;;;;9.50;7.25;;;;;;;;;;5038962;28;20021;-75
2022/04/28 04:03:23;;;;;;;9.10;7.03;;;;;;;;;;5071834;28;20044;-73
2022/04/28 04:05:49;;;;;;;11.63;7.28;;;;;;;;;;5055153;28;20025;-74
2022/04/28 04:08:15;;;;;;;9.98;7.20;;;;;;;;;;5038465;28;20083;-74
2022/04/28 04:10:49;;;;;;;8.10;6.75;;;;;;;;;;5056229;28;20052;-74
2022/04/28 04:13:15;;;;;;;8.60;7.65;;;;;;;;;;5038655;28;20029;-74
2022/04/28 04:15:50;;;;;;;10.40;7.45;;;;;;;;;;5038185;28;20408;-74
2022/04/28 04:18:42;;;;;;;17.08;7.10;;;;;;;;;;5056230;28;20021;-74
2022/04/28 04:21:19;;;;;;;8.43;7.22;;;;;;;;;;5056155;28;20178;-74
2022/04/28 04:23:46;;;;;;;10.60;8.23;;;;;;;;;;5038418;28;20029;-74
2022/04/28 04:26:12;;;;;;;11.95;9.35;;;;;;;;;;5038476;28;20020;-74
2022/04/28 04:28:37;;;;;;;16.73;13.60;;;;;;;;;;5038116;28;20518;-73
2022/04/28 04:34:05;;;;;;;22.30;17.02;;;;;;;;;;5037723;28;20037;-73
2022/04/28 04:36:32;;;;;;;22.52;17.58;;;;;;;;;;5055532;28;20054;-73
2022/04/28 04:38:58;;;;;;;25.65;19.30;;;;;;;;;;5070647;28;20044;-73
2022/04/28 04:41:25;;;;;;;26.05;20.10;;;;;;;;;;5070576;28;20021;-73
2022/04/28 04:43:50;;;;;;;32.38;24.17;;;;;;;;;;5053897;28;20031;-73
2022/04/28 04:46:16;;;;;;;25.50;20.33;;;;;;;;;;5055225;28;20029;-73
2022/04/28 04:48:41;;;;;;;36.47;24.55;;;;;;;;;;5070842;28;20033;-73
2022/04/28 04:51:26;;;;;;;23.48;17.50;;;;;;;;;;5054928;28;20037;-72
2022/04/28 04:54:12;;;;;;;21.30;15.10;;;;;;;;;;5054139;28;20041;-72
2022/04/28 04:56:38;;;;;;;20.80;13.90;;;;;;;;;;5037136;28;20687;-73
2022/04/28 04:59:03;;;;;;;19.60;13.90;;;;;;;;;;5037406;28;20056;-73
2022/04/28 05:01:29;;;;;;;22.63;15.77;;;;;;;;;;5037565;28;20120;-74
2022/04/28 05:04:13;;;;;;;24.83;15.90;;;;;;;;;;5055746;28;20027;-74
2022/04/28 05:07:04;;;;;;;21.00;13.73;;;;;;;;;;5055689;28;20052;-74
2022/04/28 05:09:31;;;;;;;18.08;12.73;;;;;;;;;;5070186;28;20040;-75
2022/04/28 05:11:57;;;;;;;15.18;11.23;;;;;;;;;;5066829;28;20061;-75
2022/04/28 05:14:34;;;;;;;17.63;11.77;;;;;;;;;;5066812;28;20486;-74
2022/04/28 05:17:00;;;;;;;15.23;11.57;;;;;;;;;;5033931;28;20657;-74
2022/04/28 05:19:35;;;;;;;14.63;11.63;;;;;;;;;;5018767;28;20108;-74
2022/04/28 05:22:02;;;;;;;16.70;11.25;;;;;;;;;;5035254;28;20064;-73
2022/04/28 05:24:36;;;;;;;16.23;12.35;;;;;;;;;;5035179;28;20030;-74
2022/04/28 05:27:21;;;;;;;16.90;12.10;;;;;;;;;;5034875;28;20129;-74
2022/04/28 05:29:49;;;;;;;20.58;12.95;;;;;;;;;;5034900;28;20051;-74
2022/04/28 05:32:33;;;;;;;18.58;12.43;;;;;;;;;;5035250;28;20029;-74
2022/04/28 05:35:21;;;;;;;27.95;18.65;;;;;;;;;;5037706;28;20175;-75
2022/04/28 05:37:48;;;;;;;25.10;19.25;;;;;;;;;;5034636;28;20480;-73
2022/04/28 05:40:16;;;;;;;29.38;21.35;;;;;;;;;;5033710;28;20009;-73
2022/04/28 05:48:18;;;;;;;22.08;14.82;;;;;;;;;;5031777;28;20029;-74
2022/04/28 05:50:52;;;;;;;18.30;11.98;;;;;;;;;;5033075;28;20030;-73
2022/04/28 05:53:18;;;;;;;17.25;11.45;;;;;;;;;;5032042;28;20421;-74
2022/04/28 05:55:47;;;;;;;16.13;10.23;;;;;;;;;;5065049;28;20021;-74
2022/04/28 05:58:13;;;;;;;13.20;9.25;;;;;;;;;;5033053;28;20481;-74
2022/04/28 06:00:44;;;;;;;11.27;7.45;;;;;;;;;;5031650;28;20018;-74
2022/04/28 06:03:10;;;;;;;11.15;8.00;;;;;;;;;;5048814;28;20034;-74
2022/04/28 06:05:43;;;;;;;10.70;8.02;;;;;;;;;;5050441;28;20021;-74
2022/04/28 06:08:11;;;;;;;11.57;7.95;;;;;;;;;;5065968;28;20071;-74
2022/04/28 06:10:36;;;;;;;10.45;7.75;;;;;;;;;;5032000;28;20521;-74
2022/04/28 06:13:02;;;;;;;12.40;8.13;;;;;;;;;;5066158;28;20036;-74
2022/04/28 06:15:36;;;;;;;14.43;10.32;;;;;;;;;;5034352;28;20033;-74
2022/04/28 06:18:22;;;;;;;13.23;8.43;;;;;;;;;;5034093;28;20033;-74
2022/04/28 06:20:48;;;;;;;14.77;10.00;;;;;;;;;;5066183;28;20032;-74
2022/04/28 06:23:30;;;;;;;12.02;8.10;;;;;;;;;;5032254;28;20075;-74
2022/04/28 06:25:55;;;;;;;10.88;7.60;;;;;;;;;;5065992;28;20396;-74
2022/04/28 06:28:20;;;;;;;5.55;4.32;;;;;;;;;;5064929;28;20072;-74
2022/04/28 06:30:52;;;;;;;5.38;3.95;;;;;;;;;;5064980;28;20033;-74
2022/04/28 06:33:41;;;;;;;5.88;4.30;;;;;;;;;;5065741;28;20036;-74
2022/04/28 06:36:13;;;;;;;4.68;3.97;;;;;;;;;;5032432;28;20029;-74
2022/04/28 06:38:41;;;;;;;3.90;3.60;;;;;;;;;;5064808;28;20080;-74
2022/04/28 06:41:11;;;;;;;12.80;3.85;;;;;;;;;;5033465;28;20022;-74
2022/04/28 06:43:40;;;;;;;5.28;3.88;;;;;;;;;;5049550;28;20508;-74
2022/04/28 06:46:29;;;;;;;6.75;3.60;;;;;;;;;;5032334;28;20072;-74
2022/04/28 06:49:00;;;;;;;6.88;4.47;;;;;;;;;;5033379;28;20397;-74
2022/04/28 06:51:58;;;;;;;3.45;3.25;;;;;;;;;;5033574;28;20382;-74
2022/04/28 06:54:42;;;;;;;4.63;3.70;;;;;;;;;;5032375;28;20087;-74
2022/04/28 06:57:09;;;;;;;3.92;3.55;;;;;;;;;;5065540;28;20032;-74
2022/04/28 06:59:37;;;;;;;5.13;4.20;;;;;;;;;;5065002;28;20474;-74
2022/04/28 07:02:06;;;;;;;5.20;3.83;;;;;;;;;;5049034;28;20071;-74
2022/04/28 07:04:35;;;;;;;7.70;3.28;;;;;;;;;;5032091;28;20385;-74
2022/04/28 07:07:00;;;;;;;4.30;3.90;;;;;;;;;;5031958;28;20481;-74
2022/04/28 07:09:26;;;;;;;4.15;3.75;;;;;;;;;;5033211;28;20021;-74
2022/04/28 07:11:53;;;;;;;4.88;3.40;;;;;;;;;;5065009;28;20050;-74
2022/04/28 07:14:36;;;;;;;4.68;3.63;;;;;;;;;;5018008;28;20111;-74
2022/04/28 07:17:20;;;;;;;3.88;3.45;;;;;;;;;;5033472;28;20041;-74
2022/04/28 07:19:56;;;;;;;3.70;3.40;;;;;;;;;;5050292;28;20025;-74
2022/04/28 07:22:22;;;;;;;4.18;3.65;;;;;;;;;;5031619;28;20029;-74
2022/04/28 07:24:47;;;;;;;4.57;4.10;;;;;;;;;;5065142;28;20014;-74
2022/04/28 07:27:14;;;;;;;4.20;3.88;;;;;;;;;;5065120;28;20037;-74
2022/04/28 07:29:41;;;;;;;4.68;3.72;;;;;;;;;;5065100;28;20049;-74
2022/04/28 07:32:11;;;;;;;4.47;4.10;;;;;;;;;;5065104;28;20029;-74
2022/04/28 07:34:56;;;;;;;3.60;3.22;;;;;;;;;;5031853;28;20528;-74
2022/04/28 07:37:41;;;;;;;4.35;3.95;;;;;;;;;;5033206;28;20048;-74
2022/04/28 07:40:36;;;;;;;6.85;4.43;;;;;;;;;;5032174;28;20075;-74
2022/04/28 07:43:25;;;;;;;5.63;3.80;;;;;;;;;;5031554;28;20042;-74
2022/04/28 07:45:53;;;;;;;3.63;3.40;;;;;;;;;;5031394;28;20389;-74
2022/04/28 07:48:22;;;;;;;3.60;3.30;;;;;;;;;;5032861;28;20041;-74
2022/04/28 07:50:47;;;;;;;4.40;3.67;;;;;;;;;;5067402;28;20048;-74
2022/04/28 07:53:25;;;;;;;3.72;3.10;;;;;;;;;;5068427;28;20029;-74
2022/04/28 07:58:54;;;;;;;3.20;2.90;;;;;;;;;;4974919;28;20104;-74
2022/04/28 08:01:25;;;;;;;3.50;3.20;;;;;;;;;;4959266;28;20433;-74
2022/04/28 08:03:51;;;;;;;4.68;4.15;;;;;;;;;;4995667;28;20401;-74
2022/04/28 08:06:17;;;;;;;8.93;4.70;;;;;;;;;;5036443;28;20017;-74
2022/04/28 08:08:46;;;;;;;6.63;3.88;;;;;;;;;;5035111;28;20543;-74
2022/04/28 08:11:11;;;;;;;3.45;3.10;;;;;;;;;;5034681;28;20375;-74
2022/04/28 08:13:37;;;;;;;3.75;3.45;;;;;;;;;;5067839;28;20044;-74
2022/04/28 08:16:15;;;;;;;5.15;3.35;;;;;;;;;;5068012;28;20436;-74
2022/04/28 08:18:43;;;;;;;4.32;3.45;;;;;;;;;;5068030;28;20492;-74
2022/04/28 08:21:17;;;;;;;4.38;3.55;;;;;;;;;;5067572;28;20087;-74
2022/04/28 08:23:43;;;;;;;6.90;3.90;;;;;;;;;;5034654;28;20029;-74
2022/04/28 08:26:09;;;;;;;3.08;2.88;;;;;;;;;;5067989;28;20024;-74
2022/04/28 08:28:36;;;;;;;5.20;3.25;;;;;;;;;;5035726;28;20095;-74
2022/04/28 08:31:01;;;;;;;4.10;2.90;;;;;;;;;;5034371;28;20033;-74
2022/04/28 08:33:28;;;;;;;4.00;3.28;;;;;;;;;;5067622;28;20033;-74
2022/04/28 08:35:55;;;;;;;4.65;2.65;;;;;;;;;;5034350;28;20010;-74
2022/04/28 08:38:21;;;;;;;3.03;2.72;;;;;;;;;;5001556;28;20076;-74
2022/04/28 08:40:48;;;;;;;3.65;2.90;;;;;;;;;;5034218;28;20026;-74
2022/04/28 08:43:29;;;;;;;6.05;3.25;;;;;;;;;;5034211;28;20063;-74
2022/04/28 08:48:52;;;;;;;3.60;2.47;;;;;;;;;;5033808;28;20033;-74
2022/04/28 08:51:19;;;;;;;4.18;3.13;;;;;;;;;;5067392;28;20040;-74
2022/04/28 08:53:47;;;;;;;6.30;3.33;;;;;;;;;;5017947;28;20032;-74
2022/04/28 08:56:13;;;;;;;6.85;3.85;;;;;;;;;;5067293;28;20052;-74
2022/04/28 08:58:39;;;;;;;3.33;3.10;;;;;;;;;;5067222;28;20474;-74
2022/04/28 09:01:06;;;;;;;4.90;2.70;;;;;;;;;;5066443;28;20026;-74
2022/04/28 09:03:51;;;;;;;3.80;2.90;;;;;;;;;;5035387;28;20437;-74
2022/04/28 09:06:36;;;;;;;7.47;4.35;;;;;;;;;;5035251;28;20052;-71
2022/04/28 09:09:20;;;;;;;5.85;3.70;;;;;;;;;;5034477;28;20171;-71
2022/04/28 09:12:06;;;;;;;3.60;3.30;;;;;;;;;;5051064;28;20571;-71
2022/04/28 09:14:51;;;;;;;16.55;3.80;;;;;;;;;;5054770;28;20049;-71
2022/04/28 09:17:23;;;;;;;4.45;3.25;;;;;;;;;;5036801;28;20370;-71
2022/04/28 09:20:01;;;;;;;5.85;3.65;;;;;;;;;;5020890;28;20036;-71
2022/04/28 09:22:40;;;;;;;3.00;2.80;;;;;;;;;;5070128;28;20476;-71
2022/04/28 09:25:08;;;;;;;4.45;3.20;;;;;;;;;;5069967;28;20036;-71
2022/04/28 09:27:36;;;;;;;3.30;3.10;;;;;;;;;;5017161;28;20049;-71
2022/04/28 09:30:03;;;;;;;2.10;2.00;;;;;;;;;;5016484;28;20044;-72
2022/04/28 09:32:31;;;;;;;2.88;2.60;;;;;;;;;;5017151;28;20108;-71
2022/04/28 09:35:15;;;;;;;3.47;3.17;;;;;;;;;;5035009;28;20496;-72
2022/04/28 09:37:44;;;;;;;3.60;3.05;;;;;;;;;;5034791;28;20042;-71
2022/04/28 09:42:54;;;;;;;3.40;2.80;;;;;;;;;;5015523;28;20069;-72
2022/04/28 09:45:33;;;;;;;3.40;3.10;;;;;;;;;;5033191;28;20098;-72
2022/04/28 09:48:01;;;;;;;4.55;3.05;;;;;;;;;;5015380;28;20025;-72
2022/04/28 09:50:30;;;;;;;5.68;3.47;;;;;;;;;;5048410;28;20021;-72
2022/04/28 09:53:31;;;;;;;3.05;2.83;;;;;;;;;;5000212;28;20037;-72
2022/04/28 09:56:16;;;;;;;3.45;3.15;;;;;;;;;;5034043;28;20041;-71
2022/04/28 09:58:55;;;;;;;4.93;3.47;;;;;;;;;;5048241;28;20053;-72
2022/04/28 10:01:21;;;;;;;3.95;3.00;;;;;;;;;;5032835;28;20029;-71
2022/04/28 10:03:46;;;;;;;4.50;3.05;;;;;;;;;;5015059;28;20038;-71
2022/04/28 10:06:17;;;;;;;3.97;3.67;;;;;;;;;;5015422;28;20518;-71
2022/04/28 10:08:46;;;;;;;5.88;3.80;;;;;;;;;;5032829;28;20029;-71
2022/04/28 10:11:17;;;;;;;6.85;4.47;;;;;;;;;;5044521;28;20057;-71
2022/04/28 10:13:45;;;;;;;4.35;3.53;;;;;;;;;;5043656;28;20029;-72
2022/04/28 10:16:12;;;;;;;4.05;3.65;;;;;;;;;;5044659;28;20083;-72
2022/04/28 10:18:49;;;;;;;7.80;4.50;;;;;;;;;;5011666;28;20022;-72
2022/04/28 10:21:16;;;;;;;4.43;3.83;;;;;;;;;;4995408;28;20092;-72
2022/04/28 10:32:58;;;;;;;4.28;3.40;;;;;;;;;;5012784;28;20442;-72
2022/04/28 10:35:40;;;;;;;5.00;4.00;;;;;;;;;;5011445;28;20092;-72
2022/04/28 10:38:09;;;;;;;5.60;3.80;;;;;;;;;;5012755;28;20033;-72
2022/04/28 10:40:38;;;;;;;5.20;4.30;;;;;;;;;;5012746;28;20022;-72
2022/04/28 10:43:04;;;;;;;4.27;3.90;;;;;;;;;;5012701;28;20029;-72
2022/04/28 10:45:43;;;;;;;3.75;3.33;;;;;;;;;;5012666;28;20080;-72
2022/04/28 10:48:25;;;;;;;3.20;3.00;;;;;;;;;;5012602;28;20022;-72
2022/04/28 10:51:06;;;;;;;3.95;3.60;;;;;;;;;;5012619;28;20022;-72
2022/04/28 10:53:32;;;;;;;3.90;3.58;;;;;;;;;;5044331;28;20037;-72
2022/04/28 10:56:08;;;;;;;4.03;3.60;;;;;;;;;;5012655;28;20030;-72
2022/04/28 10:58:35;;;;;;;3.28;3.08;;;;;;;;;;5011353;28;20108;-72
2022/04/28 11:01:01;;;;;;;3.60;3.17;;;;;;;;;;5012998;28;20436;-72
2022/04/28 11:03:49;;;;;;;3.58;3.38;;;;;;;;;;5013041;28;20179;-71
2022/04/28 11:06:18;;;;;;;3.17;2.97;;;;;;;;;;4995075;28;20111;-71
2022/04/28 11:08:44;;;;;;;3.20;3.00;;;;;;;;;;5012773;28;20018;-71
2022/04/28 11:11:12;;;;;;;3.15;2.95;;;;;;;;;;5012450;28;20046;-72
2022/04/28 11:13:40;;;;;;;3.65;2.85;;;;;;;;;;4995201;28;20417;-72
2022/04/28 11:16:07;;;;;;;3.17;2.88;;;;;;;;;;5027708;28;20462;-71
2022/04/28 11:18:33;;;;;;;3.00;2.80;;;;;;;;;;4994813;28;20018;-71
2022/04/28 11:21:01;;;;;;;3.17;2.92;;;;;;;;;;5012347;28;20028;-71
2022/04/28 11:23:31;;;;;;;2.78;2.58;;;;;;;;;;4994759;28;20105;-71
2022/04/28 11:25:57;;;;;;;2.80;2.60;;;;;;;;;;5015433;28;20462;-71
2022/04/28 11:28:22;;;;;;;2.80;2.60;;;;;;;;;;4998670;28;20117;-71
2022/04/28 11:30:49;;;;;;;3.03;2.80;;;;;;;;;;5016168;28;20485;-72
2022/04/28 11:33:16;;;;;;;2.88;2.67;;;;;;;;;;5031259;28;20117;-72
2022/04/28 11:35:42;;;;;;;2.17;2.08;;;;;;;;;;5031318;28;20032;-72
2022/04/28 11:38:08;;;;;;;2.88;2.60;;;;;;;;;;5016021;28;20022;-72
2022/04/28 11:40:36;;;;;;;2.90;2.70;;;;;;;;;;5031031;28;20079;-72
2022/04/28 11:43:03;;;;;;;3.03;2.35;;;;;;;;;;5031043;28;20022;-72
2022/04/28 11:45:32;;;;;;;2.60;2.00;;;;;;;;;;5030694;28;20046;-72
2022/04/28 11:48:00;;;;;;;2.78;2.40;;;;;;;;;;5015686;28;20397;-72
2022/04/28 11:50:27;;;;;;;2.67;2.50;;;;;;;;;;5015769;28;20129;-72
2022/04/28 11:53:03;;;;;;;3.97;2.78;;;;;;;;;;5014424;28;20441;-72
2022/04/28 11:55:31;;;;;;;3.28;2.67;;;;;;;;;;5015676;28;20026;-72
2022/04/28 11:57:57;;;;;;;3.92;3.05;;;;;;;;;;5015581;28;20021;-72
2022/04/28 12:00:25;;;;;;;5.47;4.20;;;;;;;;;;5015520;28;20033;-72
2022/04/28 12:02:55;;;;;;;5.78;4.55;;;;;;;;;;4997999;28;20018;-72
2022/04/28 12:05:25;;;;;;;4.43;4.03;;;;;;;;;;5015418;28;20034;-72
2022/04/28 12:07:51;;;;;;;4.32;3.92;;;;;;;;;;5015451;28;20109;-72
2022/04/28 12:16:02;;;;;;;4.32;3.95;;;;;;;;;;4955418;28;20124;-71
2022/04/28 12:21:17;;;;;;;3.80;3.42;;;;;;;;;;4996635;28;20509;-72
2022/04/28 12:23:45;;;;;;;4.87;4.37;;;;;;;;;;4996468;28;20041;-72
2022/04/28 12:26:10;;;;;;;4.63;4.20;;;;;;;;;;4996297;28;20026;-72
2022/04/28 12:28:39;;;;;;;6.78;5.10;;;;;;;;;;4996350;28;20041;-72
2022/04/28 12:31:05;;;;;;;5.35;3.83;;;;;;;;;;4979089;28;20447;-72
2022/04/28 12:33:34;;;;;;;5.15;4.72;;;;;;;;;;4978915;28;20113;-72
2022/04/28 12:36:01;;;;;;;4.07;3.72;;;;;;;;;;4995966;28;20018;-72
2022/04/28 12:38:27;;;;;;;4.07;3.10;;;;;;;;;;4996214;28;20081;-72
2022/04/28 12:40:52;;;;;;;4.25;3.83;;;;;;;;;;4996767;28;20022;-72
2022/04/28 12:43:38;;;;;;;3.83;2.80;;;;;;;;;;4996147;28;20037;-72
2022/04/28 12:46:05;;;;;;;2.97;2.78;;;;;;;;;;4996101;28;20026;-72
2022/04/28 12:48:33;;;;;;;4.28;3.00;;;;;;;;;;4996624;28;20410;-72
2022/04/28 12:51:10;;;;;;;5.25;4.10;;;;;;;;;;4995242;28;20085;-72
2022/04/28 12:53:36;;;;;;;4.55;4.13;;;;;;;;;;4994506;28;20462;-72
2022/04/28 12:56:12;;;;;;;5.28;4.35;;;;;;;;;;4996141;28;20034;-72
2022/04/28 12:58:38;;;;;;;7.88;4.43;;;;;;;;;;4995511;28;20039;-72
2022/04/28 13:01:03;;;;;;;4.72;4.32;;;;;;;;;;4995789;28;20030;-72
2022/04/28 13:03:29;;;;;;;5.00;3.92;;;;;;;;;;4995705;28;20034;-72
2022/04/28 13:05:55;;;;;;;3.92;3.60;;;;;;;;;;4995629;28;20018;-72
2022/04/28 13:08:20;;;;;;;5.55;3.40;;;;;;;;;;4995664;28;20042;-74
2022/04/28 13:10:46;;;;;;;9.05;4.25;;;;;;;;;;4995148;28;20560;-74
2022/04/28 13:13:11;;;;;;;6.80;4.75;;;;;;;;;;5011305;28;20046;-74
2022/04/28 13:15:37;;;;;;;4.22;3.90;;;;;;;;;;4995908;28;20022;-74
2022/04/28 13:18:03;;;;;;;4.22;3.88;;;;;;;;;;4995867;28;20030;-74
2022/04/28 13:20:29;;;;;;;10.80;4.43;;;;;;;;;;4995930;28;20054;-74
2022/04/28 13:22:54;;;;;;;4.85;4.45;;;;;;;;;;4996039;28;20054;-74
2022/04/28 13:25:20;;;;;;;4.63;4.10;;;;;;;;;;4995829;28;20022;-74
2022/04/28 13:27:47;;;;;;;4.25;3.72;;;;;;;;;;5011075;28;20040;-74
2022/04/28 13:30:13;;;;;;;4.95;4.30;;;;;;;;;;4995657;28;20451;-74
2022/04/28 13:32:39;;;;;;;4.05;3.75;;;;;;;;;;5010450;28;20451;-74
2022/04/28 13:35:05;;;;;;;4.22;3.80;;;;;;;;;;4995614;28;20101;-74
2022/04/28 13:37:30;;;;;;;4.32;3.92;;;;;;;;;;4995304;28;20462;-75
2022/04/28 13:39:55;;;;;;;10.98;4.43;;;;;;;;;;4995285;28;20097;-75
2022/04/28 13:42:22;;;;;;;3.97;3.60;;;;;;;;;;4994999;28;20031;-75
2022/04/28 13:44:47;;;;;;;5.78;4.18;;;;;;;;;;4995183;28;20026;-74
2022/04/28 13:47:14;;;;;;;3.88;3.35;;;;;;;;;;4994732;28;20038;-74
2022/04/28 13:49:39;;;;;;;3.72;3.45;;;;;;;;;;4995185;28;20058;-74
2022/04/28 13:52:05;;;;;;;4.18;3.78;;;;;;;;;;4995524;28;20054;-74
2022/04/28 13:54:30;;;;;;;6.07;3.67;;;;;;;;;;4995045;28;20026;-74
2022/04/28 13:56:58;;;;;;;4.93;3.42;;;;;;;;;;4994996;28;20022;-74
2022/04/28 13:59:23;;;;;;;4.85;3.35;;;;;;;;;;4995004;28;20062;-74
2022/04/28 14:01:48;;;;;;;3.83;3.50;;;;;;;;;;4994704;28;20058;-74
2022/04/28 14:04:14;;;;;;;3.40;3.17;;;;;;;;;;4994940;28;20037;-74
2022/04/28 14:06:52;;;;;;;3.13;2.92;;;;;;;;;;4994739;28;20076;-74
2022/04/28 14:09:24;;;;;;;9.48;3.90;;;;;;;;;;4978570;28;20083;-74
2022/04/28 14:11:51;;;;;;;3.50;3.00;;;;;;;;;;4996026;28;20129;-74
2022/04/28 14:14:29;;;;;;;3.60;3.30;;;;;;;;;;4994500;28;20052;-73
2022/04/28 14:17:01;;;;;;;3.30;3.05;;;;;;;;;;5009866;28;20030;-73
2022/04/28 14:19:26;;;;;;;3.63;3.38;;;;;;;;;;4994865;28;20516;-73
2022/04/28 14:21:58;;;;;;;4.80;3.67;;;;;;;;;;4994670;28;20117;-73
2022/04/28 14:24:30;;;;;;;3.63;3.40;;;;;;;;;;4993984;28;20537;-73
2022/04/28 14:27:02;;;;;;;2.70;2.50;;;;;;;;;;4993301;28;20062;-73
2022/04/28 14:29:27;;;;;;;2.92;2.72;;;;;;;;;;4975875;28;20049;-74
2022/04/28 14:32:01;;;;;;;3.42;2.60;;;;;;;;;;5007536;28;20030;-74
2022/04/28 14:34:33;;;;;;;3.38;3.10;;;;;;;;;;4993428;28;20032;-74
2022/04/28 14:37:06;;;;;;;3.03;2.75;;;;;;;;;;4993084;28;20475;-74
2022/04/28 14:39:32;;;;;;;2.47;2.28;;;;;;;;;;4993347;28;20096;-74
2022/04/28 14:42:05;;;;;;;2.63;2.42;;;;;;;;;;4993060;28;20057;-74
2022/04/28 14:44:37;;;;;;;3.63;2.35;;;;;;;;;;4976634;28;20510;-74
2022/04/28 14:47:09;;;;;;;3.10;2.67;;;;;;;;;;4992992;28;20101;-74
2022/04/28 14:52:33;;;;;;;3.00;2.65;;;;;;;;;;4992898;28;20060;-74
2022/04/28 14:55:06;;;;;;;2.60;2.40;;;;;;;;;;4992850;28;20049;-74
2022/04/28 14:57:36;;;;;;;3.78;2.60;;;;;;;;;;4992925;28;20153;-74
2022/04/28 15:00:04;;;;;;;3.45;3.00;;;;;;;;;;4994510;28;20027;-74
2022/04/28 15:02:29;;;;;;;3.20;2.70;;;;;;;;;;4996870;28;20025;-74
2022/04/28 15:04:55;;;;;;;3.58;3.28;;;;;;;;;;4996920;28;20117;-74
2022/04/28 15:07:20;;;;;;;4.47;3.42;;;;;;;;;;4996807;28;20085;-74
2022/04/28 15:09:46;;;;;;;3.50;3.20;;;;;;;;;;5011828;28;20038;-74
2022/04/28 15:12:12;;;;;;;5.55;4.18;;;;;;;;;;4996509;28;20051;-74
2022/04/28 15:14:38;;;;;;;6.75;6.15;;;;;;;;;;4996534;28;20061;-74
2022/04/28 15:17:04;;;;;;;5.25;4.60;;;;;;;;;;4996578;28;20073;-74
2022/04/28 15:19:29;;;;;;;6.10;4.93;;;;;;;;;;4996556;28;20037;-74
2022/04/28 15:21:55;;;;;;;12.18;9.13;;;;;;;;;;4996511;28;20382;-74
2022/04/28 15:24:21;;;;;;;5.03;3.65;;;;;;;;;;4996423;28;20023;-74
2022/04/28 15:26:46;;;;;;;5.55;3.58;;;;;;;;;;4996231;28;20075;-74
2022/04/28 15:29:12;;;;;;;3.08;2.72;;;;;;;;;;4997187;28;20117;-74
2022/04/28 15:31:38;;;;;;;7.45;5.00;;;;;;;;;;4997347;28;20088;-74
2022/04/28 15:34:04;;;;;;;9.18;8.27;;;;;;;;;;5012622;28;20062;-74
2022/04/28 15:36:31;;;;;;;6.20;5.63;;;;;;;;;;4997409;28;20489;-74
2022/04/28 15:38:57;;;;;;;5.68;5.13;;;;;;;;;;4997624;28;20031;-75
2022/04/28 15:41:22;;;;;;;3.13;2.83;;;;;;;;;;4997319;28;20041;-79
2022/04/28 15:43:47;;;;;;;3.15;2.53;;;;;;;;;;4997561;28;20062;-78